createdAt,value
2018-05-09T00:01:10.045Z,49.90
2018-05-09T00:03:38.364Z,49.80
2018-05-09T00:06:07.443Z,49.80
2018-05-09T00:08:35.783Z,49.80
2018-05-09T00:11:04.153Z,49.80
2018-05-09T00:13:32.840Z,49.80
2018-05-09T00:16:01.216Z,49.70
2018-05-09T00:18:29.495Z,49.90
2018-05-09T00:20:57.771Z,49.90
2018-05-09T00:23:26.068Z,49.80
2018-05-09T00:25:54.435Z,49.90
2018-05-09T00:28:22.708Z,49.90
2018-05-09T00:30:51.148Z,49.80
2018-05-09T00:33:20.193Z,49.80
2018-05-09T00:35:48.467Z,49.70
2018-05-09T00:38:16.969Z,49.60
2018-05-09T00:40:45.217Z,49.70
2018-05-09T00:43:13.626Z,49.70
2018-05-09T00:45:41.956Z,49.70
2018-05-09T00:48:10.458Z,49.60
2018-05-09T00:50:38.743Z,49.80
2018-05-09T00:53:07.346Z,49.80
2018-05-09T00:55:35.640Z,50.00
2018-05-09T00:58:03.982Z,49.80
2018-05-09T01:00:32.245Z,49.70
2018-05-09T01:03:00.518Z,49.70
2018-05-09T01:05:28.812Z,49.80
2018-05-09T01:07:57.087Z,49.70
2018-05-09T01:10:25.600Z,49.70
2018-05-09T01:12:53.948Z,49.70
2018-05-09T01:15:22.254Z,49.70
2018-05-09T01:17:50.531Z,49.80
2018-05-09T01:20:18.807Z,49.90
2018-05-09T01:22:47.147Z,49.90
2018-05-09T01:25:15.826Z,50.00
2018-05-09T01:27:44.235Z,49.80
2018-05-09T01:30:12.506Z,49.80
2018-05-09T01:32:40.913Z,49.70
2018-05-09T01:35:09.266Z,49.70
2018-05-09T01:37:37.670Z,49.70
2018-05-09T01:40:06.128Z,49.80
2018-05-09T01:42:34.426Z,49.70
2018-05-09T01:45:02.846Z,49.80
2018-05-09T01:47:31.175Z,49.60
2018-05-09T01:49:59.593Z,49.80
2018-05-09T01:52:28.271Z,49.80
2018-05-09T01:54:56.747Z,49.80
2018-05-09T01:57:24.995Z,49.90
2018-05-09T01:59:53.263Z,49.80
2018-05-09T02:02:21.835Z,49.80
2018-05-09T02:04:50.238Z,49.80
2018-05-09T02:07:19.454Z,49.70
2018-05-09T02:09:48.478Z,49.90
2018-05-09T02:12:16.881Z,49.90
2018-05-09T02:14:45.212Z,49.80
2018-05-09T02:17:14.238Z,49.80
2018-05-09T02:19:42.566Z,49.70
2018-05-09T02:22:11.263Z,49.70
2018-05-09T02:24:39.946Z,49.90
2018-05-09T02:27:08.378Z,49.90
2018-05-09T02:29:36.710Z,49.80
2018-05-09T02:32:05.166Z,49.80
2018-05-09T02:34:33.438Z,49.90
2018-05-09T02:37:02.199Z,49.90
2018-05-09T02:39:30.591Z,49.90
2018-05-09T02:41:58.858Z,49.90
2018-05-09T02:44:27.142Z,49.70
2018-05-09T02:46:55.410Z,49.80
2018-05-09T02:49:23.801Z,49.60
2018-05-09T02:51:52.189Z,49.70
2018-05-09T02:54:20.456Z,49.70
2018-05-09T02:56:48.976Z,49.80
2018-05-09T02:59:17.325Z,49.70
2018-05-09T03:01:45.705Z,49.80
2018-05-09T03:04:14.072Z,49.90
2018-05-09T03:06:42.331Z,49.80
2018-05-09T03:09:10.762Z,49.90
2018-05-09T03:11:39.036Z,49.80
2018-05-09T03:14:07.313Z,49.90
2018-05-09T03:16:35.595Z,49.80
2018-05-09T03:19:04.054Z,49.90
2018-05-09T03:21:32.440Z,49.80
2018-05-09T03:24:00.712Z,49.90
2018-05-09T03:26:29.174Z,49.90
2018-05-09T03:28:57.483Z,49.70
2018-05-09T03:31:25.750Z,49.80
2018-05-09T03:33:54.015Z,49.60
2018-05-09T03:36:22.316Z,49.90
2018-05-09T03:38:51.037Z,49.80
2018-05-09T03:41:20.053Z,49.80
2018-05-09T03:43:48.467Z,49.80
2018-05-09T03:46:17.122Z,49.70
2018-05-09T03:48:45.530Z,50.00
2018-05-09T03:51:14.134Z,49.90
2018-05-09T03:53:42.839Z,49.90
2018-05-09T03:56:11.865Z,50.00
2018-05-09T03:58:40.266Z,49.90
2018-05-09T04:01:08.531Z,49.80
2018-05-09T04:03:49.402Z,50.00
2018-05-09T04:06:29.365Z,49.90
2018-05-09T04:09:09.404Z,49.60
2018-05-09T04:11:38.033Z,49.60
2018-05-09T04:14:06.505Z,49.60
2018-05-09T04:16:34.890Z,49.70
2018-05-09T04:19:03.158Z,49.60
2018-05-09T04:21:31.618Z,49.80
2018-05-09T04:23:59.932Z,49.70
2018-05-09T04:26:28.284Z,49.70
2018-05-09T04:28:56.507Z,49.70
2018-05-09T04:31:24.821Z,49.80
2018-05-09T04:33:53.086Z,49.90
2018-05-09T04:36:21.526Z,50.10
2018-05-09T04:38:49.662Z,49.70
2018-05-09T04:41:34.742Z,50.00
2018-05-09T04:44:06.409Z,50.50
2018-05-09T04:46:37.039Z,51.10
2018-05-09T04:49:10.063Z,50.70
2018-05-09T04:51:38.571Z,50.80
2018-05-09T04:54:07.255Z,50.60
2018-05-09T04:56:35.670Z,50.60
2018-05-09T04:59:06.493Z,48.30
2018-05-09T05:01:37.024Z,48.30
2018-05-09T05:04:05.420Z,50.10
2018-05-09T05:06:34.105Z,50.20
2018-05-09T05:09:05.905Z,50.10
2018-05-09T05:11:36.394Z,50.60
2018-05-09T05:14:04.758Z,50.60
2018-05-09T05:16:33.121Z,50.70
2018-05-09T05:19:01.809Z,50.80
2018-05-09T05:21:30.114Z,51.10
2018-05-09T05:23:59.176Z,51.10
2018-05-09T05:26:27.498Z,51.10
2018-05-09T05:28:56.231Z,51.50
2018-05-09T05:31:24.591Z,51.60
2018-05-09T05:33:53.028Z,51.60
2018-05-09T05:36:21.332Z,51.60
2018-05-09T05:38:50.466Z,51.90
2018-05-09T05:41:18.777Z,51.90
2018-05-09T05:43:47.178Z,52.10
2018-05-09T05:46:15.454Z,51.70
2018-05-09T05:48:44.157Z,51.90
2018-05-09T05:51:13.202Z,52.10
2018-05-09T05:53:41.609Z,52.10
2018-05-09T05:56:10.050Z,52.10
2018-05-09T05:58:38.645Z,52.70
2018-05-09T06:01:07.064Z,52.30
2018-05-09T06:03:35.394Z,52.30
2018-05-09T06:06:04.039Z,52.50
2018-05-09T06:08:33.291Z,52.50
2018-05-09T06:11:01.734Z,52.40
2018-05-09T06:13:30.175Z,52.20
2018-05-09T06:15:58.474Z,52.10
2018-05-09T06:18:26.947Z,51.80
2018-05-09T06:20:55.222Z,52.00
2018-05-09T06:23:23.691Z,52.00
2018-05-09T06:25:52.034Z,52.50
2018-05-09T06:28:20.407Z,51.80
2018-05-09T06:30:48.802Z,51.80
2018-05-09T06:33:17.180Z,51.80
2018-05-09T06:35:45.798Z,51.80
2018-05-09T06:38:14.240Z,52.20
2018-05-09T06:40:42.588Z,52.80
2018-05-09T06:43:11.634Z,51.90
2018-05-09T06:45:40.038Z,51.80
2018-05-09T06:48:08.317Z,51.90
2018-05-09T06:50:37.350Z,52.10
2018-05-09T06:53:05.787Z,52.10
2018-05-09T06:55:34.134Z,51.70
2018-05-09T06:58:02.407Z,52.00
2018-05-09T07:00:30.707Z,51.90
2018-05-09T07:02:58.983Z,51.80
2018-05-09T07:05:27.347Z,51.50
2018-05-09T07:07:56.023Z,51.00
2018-05-09T07:10:24.414Z,50.80
2018-05-09T07:12:52.687Z,50.80
2018-05-09T07:15:21.103Z,50.70
2018-05-09T07:17:49.491Z,50.60
2018-05-09T07:20:17.934Z,50.70
2018-05-09T07:22:46.215Z,50.80
2018-05-09T07:25:14.922Z,50.70
2018-05-09T07:27:43.696Z,50.70
2018-05-09T07:30:11.952Z,50.70
2018-05-09T07:32:40.226Z,50.60
2018-05-09T07:35:08.513Z,50.70
2018-05-09T07:37:36.879Z,50.70
2018-05-09T07:40:05.141Z,50.70
2018-05-09T07:42:33.587Z,50.70
2018-05-09T07:45:02.042Z,50.80
2018-05-09T07:47:30.396Z,50.80
2018-05-09T07:49:59.039Z,50.80
2018-05-09T07:52:32.196Z,50.70
2018-05-09T07:55:00.684Z,50.70
2018-05-09T07:57:29.223Z,51.00
2018-05-09T08:00:01.882Z,51.00
2018-05-09T08:02:30.165Z,51.00
2018-05-09T08:04:58.431Z,51.00
2018-05-09T08:07:26.697Z,50.90
2018-05-09T08:09:55.018Z,51.00
2018-05-09T08:12:23.418Z,50.90
2018-05-09T08:14:51.737Z,50.90
2018-05-09T08:17:20.202Z,50.90
2018-05-09T08:19:48.496Z,50.90
2018-05-09T08:22:17.517Z,50.90
2018-05-09T08:24:45.920Z,50.80
2018-05-09T08:27:14.295Z,50.90
2018-05-09T08:29:42.622Z,50.90
2018-05-09T08:32:11.721Z,50.90
2018-05-09T08:34:40.057Z,50.90
2018-05-09T08:37:08.424Z,50.90
2018-05-09T08:39:37.031Z,50.90
2018-05-09T08:42:05.293Z,50.90
2018-05-09T08:44:33.853Z,50.80
2018-05-09T08:47:02.250Z,50.80
2018-05-09T08:49:30.549Z,50.80
2018-05-09T08:51:59.018Z,50.80
2018-05-09T08:54:27.347Z,50.80
2018-05-09T08:56:55.718Z,50.80
2018-05-09T08:59:24.744Z,50.80
2018-05-09T09:01:53.094Z,50.80
2018-05-09T09:04:21.549Z,50.70
2018-05-09T09:06:49.903Z,50.80
2018-05-09T09:09:18.170Z,50.80
2018-05-09T09:11:46.437Z,50.80
2018-05-09T09:14:14.703Z,50.80
2018-05-09T09:16:43.079Z,50.80
2018-05-09T09:19:11.478Z,50.80
2018-05-09T09:21:39.750Z,50.80
2018-05-09T09:24:08.171Z,50.80
2018-05-09T09:26:36.656Z,50.80
2018-05-09T09:29:04.990Z,50.70
2018-05-09T09:31:33.242Z,50.70
2018-05-09T09:34:01.708Z,50.70
2018-05-09T09:36:30.731Z,50.80
2018-05-09T09:38:59.057Z,50.80
2018-05-09T09:41:27.875Z,50.70
2018-05-09T09:43:56.217Z,50.70
2018-05-09T09:46:24.595Z,50.70
2018-05-09T09:48:52.891Z,50.80
2018-05-09T09:51:21.579Z,50.80
2018-05-09T09:53:50.026Z,50.80
2018-05-09T09:56:18.374Z,50.80
2018-05-09T09:58:47.014Z,50.80
2018-05-09T10:01:15.481Z,50.80
2018-05-09T10:03:43.783Z,50.90
2018-05-09T10:06:12.452Z,50.80
2018-05-09T10:08:40.939Z,50.80
2018-05-09T10:11:09.288Z,51.40
2018-05-09T10:13:37.957Z,50.90
2018-05-09T10:16:06.470Z,51.40
2018-05-09T10:18:34.727Z,50.80
2018-05-09T10:21:03.146Z,51.30
2018-05-09T10:23:31.413Z,51.00
2018-05-09T10:26:00.111Z,50.90
2018-05-09T10:28:28.876Z,51.00
2018-05-09T10:30:57.151Z,50.90
2018-05-09T10:33:25.418Z,50.80
2018-05-09T10:35:53.881Z,50.80
2018-05-09T10:38:22.312Z,50.70
2018-05-09T10:40:50.747Z,50.80
2018-05-09T10:43:19.114Z,50.80
2018-05-09T10:45:47.500Z,50.70
2018-05-09T10:48:15.855Z,50.70
2018-05-09T10:50:44.257Z,50.60
2018-05-09T10:53:12.596Z,50.60
2018-05-09T10:55:41.042Z,50.50
2018-05-09T10:58:09.337Z,50.60
2018-05-09T11:00:37.822Z,50.60
2018-05-09T11:03:06.119Z,50.60
2018-05-09T11:05:35.177Z,50.50
2018-05-09T11:08:03.577Z,50.50
2018-05-09T11:10:32.668Z,50.50
2018-05-09T11:13:00.924Z,50.50
2018-05-09T11:15:29.293Z,50.50
2018-05-09T11:17:57.696Z,50.60
2018-05-09T11:20:26.049Z,50.60
2018-05-09T11:22:54.366Z,50.60
2018-05-09T11:25:22.817Z,50.50
2018-05-09T11:27:51.194Z,50.60
2018-05-09T11:30:19.798Z,50.60
2018-05-09T11:32:48.262Z,50.60
2018-05-09T11:35:16.569Z,50.60
2018-05-09T11:37:45.091Z,50.60
2018-05-09T11:40:13.391Z,50.60
2018-05-09T11:42:41.667Z,50.60
2018-05-09T11:45:09.930Z,50.60
2018-05-09T11:47:38.207Z,50.60
2018-05-09T11:50:06.606Z,50.60
2018-05-09T11:52:35.226Z,50.70
2018-05-09T11:55:04.416Z,50.60
2018-05-09T11:57:32.670Z,50.70
2018-05-09T12:00:01.038Z,50.70
2018-05-09T12:02:29.385Z,50.60
2018-05-09T12:04:57.791Z,50.70
2018-05-09T12:07:26.131Z,50.70
2018-05-09T12:09:54.850Z,50.60
2018-05-09T12:12:23.231Z,50.60
2018-05-09T12:14:51.617Z,50.60
2018-05-09T12:17:19.871Z,50.60
2018-05-09T12:19:48.372Z,50.60
2018-05-09T12:22:16.994Z,50.60
2018-05-09T12:24:45.452Z,50.60
2018-05-09T12:27:13.732Z,50.60
2018-05-09T12:29:42.003Z,50.60
2018-05-09T12:32:10.265Z,50.60
2018-05-09T12:34:38.613Z,50.50
2018-05-09T12:37:07.645Z,50.60
2018-05-09T12:39:36.292Z,50.60
2018-05-09T12:42:05.309Z,50.60
2018-05-09T12:44:33.672Z,50.60
2018-05-09T12:47:02.035Z,50.60
2018-05-09T12:49:31.127Z,50.70
2018-05-09T12:51:59.528Z,50.70
2018-05-09T12:54:27.825Z,50.60
2018-05-09T12:56:56.227Z,50.80
2018-05-09T12:59:24.541Z,53.00
2018-05-09T13:01:52.931Z,52.50
2018-05-09T13:04:21.364Z,51.90
2018-05-09T13:06:49.646Z,51.90
2018-05-09T13:09:17.913Z,51.90
2018-05-09T13:11:46.481Z,52.10
2018-05-09T13:14:14.882Z,52.10
2018-05-09T13:16:43.153Z,51.90
2018-05-09T13:19:11.928Z,52.30
2018-05-09T13:21:40.520Z,52.10
2018-05-09T13:24:08.812Z,52.30
2018-05-09T13:26:37.314Z,51.90
2018-05-09T13:29:05.684Z,51.70
2018-05-09T13:31:34.173Z,52.10
2018-05-09T13:34:02.466Z,51.80
2018-05-09T13:36:31.235Z,51.80
2018-05-09T13:38:59.612Z,51.80
2018-05-09T13:41:27.949Z,51.70
2018-05-09T13:43:56.359Z,51.70
2018-05-09T13:46:24.723Z,51.70
2018-05-09T13:48:53.106Z,51.70
2018-05-09T13:51:21.418Z,51.80
2018-05-09T13:53:49.870Z,51.70
2018-05-09T13:56:18.125Z,51.70
2018-05-09T13:58:46.549Z,51.70
2018-05-09T14:01:14.825Z,51.70
2018-05-09T14:03:43.100Z,51.70
2018-05-09T14:06:11.342Z,51.60
2018-05-09T14:08:39.776Z,51.60
2018-05-09T14:11:08.209Z,51.60
2018-05-09T14:13:36.462Z,51.60
2018-05-09T14:16:04.822Z,51.60
2018-05-09T14:18:33.278Z,51.60
2018-05-09T14:21:01.730Z,51.50
2018-05-09T14:23:29.996Z,51.60
2018-05-09T14:25:58.423Z,51.60
2018-05-09T14:28:27.453Z,51.60
2018-05-09T14:30:55.724Z,51.60
2018-05-09T14:33:24.067Z,51.50
2018-05-09T14:35:52.286Z,51.50
2018-05-09T14:38:20.687Z,51.50
2018-05-09T14:40:48.959Z,51.50
2018-05-09T14:43:17.210Z,51.50
2018-05-09T14:45:45.809Z,51.40
2018-05-09T14:48:14.521Z,51.50
2018-05-09T14:50:42.776Z,51.40
2018-05-09T14:53:11.249Z,51.40
2018-05-09T14:55:39.645Z,51.40
2018-05-09T14:58:08.020Z,51.60
2018-05-09T15:00:36.660Z,51.70
2018-05-09T15:03:05.083Z,51.70
2018-05-09T15:05:33.477Z,51.70
2018-05-09T15:08:01.845Z,51.70
2018-05-09T15:10:30.246Z,51.70
2018-05-09T15:12:58.538Z,51.90
2018-05-09T15:15:26.954Z,52.20
2018-05-09T15:17:55.303Z,52.30
2018-05-09T15:20:24.339Z,52.40
2018-05-09T15:22:52.613Z,52.40
2018-05-09T15:25:20.942Z,52.30
2018-05-09T15:27:49.150Z,52.30
2018-05-09T15:30:17.881Z,52.30
2018-05-09T15:32:46.589Z,52.40
2018-05-09T15:35:14.879Z,52.70
2018-05-09T15:37:44.151Z,52.60
2018-05-09T15:40:12.441Z,52.60
2018-05-09T15:42:40.728Z,52.70
2018-05-09T15:45:09.083Z,52.80
2018-05-09T15:47:37.491Z,53.00
2018-05-09T15:50:05.780Z,53.10
2018-05-09T15:52:34.834Z,53.20
2018-05-09T15:55:03.215Z,53.10
2018-05-09T15:57:31.474Z,53.20
2018-05-09T15:59:59.983Z,53.20
2018-05-09T16:02:28.346Z,53.20
2018-05-09T16:04:57.066Z,53.30
2018-05-09T16:07:25.367Z,53.30
2018-05-09T16:09:53.643Z,53.30
2018-05-09T16:12:22.125Z,53.20
2018-05-09T16:14:50.399Z,53.50
2018-05-09T16:17:19.380Z,53.50
2018-05-09T16:19:48.532Z,53.80
2018-05-09T16:22:16.955Z,53.80
2018-05-09T16:24:46.194Z,53.80
2018-05-09T16:27:14.454Z,53.80
2018-05-09T16:29:42.726Z,56.10
2018-05-09T16:32:11.004Z,55.80
2018-05-09T16:34:39.421Z,55.30
2018-05-09T16:37:07.789Z,55.10
2018-05-09T16:39:36.474Z,55.50
2018-05-09T16:42:04.793Z,55.30
2018-05-09T16:44:33.083Z,55.40
2018-05-09T16:47:01.334Z,55.00
2018-05-09T16:49:29.727Z,54.90
2018-05-09T16:52:02.570Z,54.30
2018-05-09T16:54:34.412Z,54.70
2018-05-09T16:57:07.586Z,54.60
2018-05-09T16:59:38.679Z,54.50
2018-05-09T17:02:08.103Z,54.40
2018-05-09T17:04:36.454Z,54.40
2018-05-09T17:07:04.946Z,54.30
2018-05-09T17:09:33.217Z,54.20
2018-05-09T17:12:01.663Z,54.00
2018-05-09T17:14:30.686Z,54.20
2018-05-09T17:16:59.097Z,54.20
2018-05-09T17:19:27.386Z,54.60
2018-05-09T17:22:13.890Z,54.80
2018-05-09T17:24:42.850Z,54.80
2018-05-09T17:27:11.310Z,55.10
2018-05-09T17:29:39.727Z,55.30
2018-05-09T17:32:08.008Z,55.60
2018-05-09T17:34:36.493Z,55.60
2018-05-09T17:37:04.834Z,55.70
2018-05-09T17:41:30.802Z,59.80
2018-05-09T17:43:59.160Z,51.30
2018-05-09T17:46:27.365Z,52.10
2018-05-09T17:48:55.843Z,52.40
2018-05-09T17:51:24.126Z,52.70
2018-05-09T17:53:53.370Z,52.40
2018-05-09T17:56:21.810Z,52.50
2018-05-09T17:58:50.156Z,52.70
2018-05-09T18:01:18.567Z,53.00
2018-05-09T18:03:46.937Z,53.20
2018-05-09T18:06:15.380Z,52.90
2018-05-09T18:08:43.650Z,53.30
2018-05-09T18:11:12.062Z,53.90
2018-05-09T18:13:40.334Z,52.80
2018-05-09T18:16:08.811Z,52.50
2018-05-09T18:18:37.087Z,52.60
2018-05-09T18:21:05.359Z,51.90
2018-05-09T18:23:33.634Z,51.20
2018-05-09T18:26:02.324Z,50.90
2018-05-09T18:28:30.634Z,52.10
2018-05-09T18:30:58.899Z,51.80
2018-05-09T18:33:27.265Z,51.70
2018-05-09T18:35:55.506Z,51.80
2018-05-09T18:38:23.781Z,51.20
2018-05-09T18:40:52.104Z,51.10
2018-05-09T18:43:20.404Z,51.30
2018-05-09T18:45:48.817Z,51.70
2018-05-09T18:48:17.095Z,51.40
2018-05-09T18:50:47.012Z,50.90
2018-05-09T18:53:15.286Z,50.90
2018-05-09T18:55:43.567Z,50.90
2018-05-09T18:58:11.894Z,50.90
2018-05-09T19:00:40.174Z,50.70
2018-05-09T19:03:09.836Z,50.20
2018-05-09T19:05:38.358Z,50.20
2018-05-09T19:08:06.625Z,50.10
2018-05-09T19:10:34.921Z,49.70
2018-05-09T19:13:03.322Z,50.20
2018-05-09T19:15:31.754Z,50.30
2018-05-09T19:18:00.398Z,50.50
2018-05-09T19:20:28.687Z,49.80
2018-05-09T19:22:56.974Z,50.80
2018-05-09T19:25:25.381Z,49.50
2018-05-09T19:27:53.939Z,50.90
2018-05-09T19:30:22.622Z,50.00
2018-05-09T19:32:51.008Z,50.20
2018-05-09T19:35:19.387Z,50.00
2018-05-09T19:37:47.720Z,50.60
2018-05-09T19:40:16.948Z,50.60
2018-05-09T19:42:45.218Z,50.60
2018-05-09T19:45:13.778Z,49.70
2018-05-09T19:47:42.911Z,50.00
2018-05-09T19:50:11.139Z,49.90
2018-05-09T19:52:39.595Z,49.80
2018-05-09T19:55:08.017Z,49.40
2018-05-09T19:57:36.275Z,49.00
2018-05-09T20:00:04.807Z,49.30
2018-05-09T20:02:33.154Z,49.60
2018-05-09T20:05:01.740Z,49.80
2018-05-09T20:07:30.090Z,49.60
2018-05-09T20:09:58.475Z,49.40
2018-05-09T20:12:26.990Z,48.90
2018-05-09T20:14:55.271Z,50.50
2018-05-09T20:17:23.537Z,49.50
2018-05-09T20:19:51.837Z,50.00
2018-05-09T20:22:20.395Z,50.60
2018-05-09T20:24:48.709Z,50.10
2018-05-09T20:27:16.963Z,49.50
2018-05-09T20:29:45.291Z,49.80
2018-05-09T20:32:25.612Z,50.30
2018-05-09T20:34:53.900Z,50.10
2018-05-09T20:37:22.163Z,48.80
2018-05-09T20:39:51.975Z,50.10
2018-05-09T20:42:20.384Z,50.60
2018-05-09T20:44:48.660Z,50.80
2018-05-09T20:47:17.118Z,50.60
2018-05-09T20:49:45.439Z,50.90
2018-05-09T20:52:13.720Z,50.10
2018-05-09T20:54:41.966Z,49.90
2018-05-09T20:57:10.274Z,50.90
2018-05-09T20:59:38.719Z,50.30
2018-05-09T21:02:07.113Z,50.50
2018-05-09T21:04:35.459Z,50.80
2018-05-09T21:07:03.739Z,49.60
2018-05-09T21:09:32.012Z,49.30
2018-05-09T21:12:09.191Z,49.80
2018-05-09T21:14:37.620Z,50.40
2018-05-09T21:17:05.879Z,50.20
2018-05-09T21:19:34.283Z,49.40
2018-05-09T21:22:02.727Z,48.90
2018-05-09T21:24:31.137Z,49.40
2018-05-09T21:27:00.431Z,50.80
2018-05-09T21:29:28.682Z,50.70
2018-05-09T21:31:57.180Z,49.60
2018-05-09T21:34:25.483Z,50.70
2018-05-09T21:36:53.934Z,50.20
2018-05-09T21:39:22.233Z,49.40
2018-05-09T21:41:50.698Z,50.50
2018-05-09T21:44:18.975Z,50.00
2018-05-09T21:46:47.241Z,51.10
2018-05-09T21:49:15.506Z,51.20
2018-05-09T21:51:43.790Z,50.90
2018-05-09T21:54:12.289Z,50.80
2018-05-09T21:56:40.551Z,51.40
2018-05-09T21:59:08.805Z,51.40
2018-05-09T22:01:37.095Z,51.60
2018-05-09T22:04:05.356Z,51.70
2018-05-09T22:06:33.878Z,51.80
2018-05-09T22:09:02.144Z,51.90
2018-05-09T22:11:30.628Z,51.80
2018-05-09T22:13:58.969Z,51.90
2018-05-09T22:16:27.238Z,52.00
2018-05-09T22:18:55.618Z,52.00
2018-05-09T22:21:23.822Z,52.00
2018-05-09T22:23:52.206Z,51.90
2018-05-09T22:26:20.478Z,51.70
2018-05-09T22:28:48.757Z,51.70
2018-05-09T22:31:23.282Z,51.70
2018-05-09T22:33:52.468Z,51.70
2018-05-09T22:36:20.747Z,51.80
2018-05-09T22:38:49.037Z,51.80
2018-05-09T22:41:17.313Z,51.80
2018-05-09T22:43:45.684Z,51.80
2018-05-09T22:46:14.087Z,51.70
2018-05-09T22:48:42.434Z,51.70
2018-05-09T22:51:10.704Z,51.00
2018-05-09T22:53:38.977Z,51.40
2018-05-09T22:56:07.253Z,51.40
2018-05-09T22:58:35.662Z,51.60
2018-05-09T23:01:03.926Z,51.60
2018-05-09T23:03:32.455Z,51.60
2018-05-09T23:06:00.711Z,51.50
2018-05-09T23:08:28.973Z,51.70
2018-05-09T23:10:57.245Z,51.70
2018-05-09T23:13:25.515Z,51.70
2018-05-09T23:15:53.781Z,51.80
2018-05-09T23:18:22.073Z,51.80
2018-05-09T23:20:50.483Z,51.90
2018-05-09T23:23:19.506Z,51.40
2018-05-09T23:25:47.811Z,51.90
2018-05-09T23:28:16.214Z,52.00
2018-05-09T23:30:44.496Z,52.10
2018-05-09T23:33:12.754Z,52.10
2018-05-09T23:35:41.064Z,52.20
2018-05-09T23:38:09.319Z,52.10
2018-05-09T23:40:37.604Z,52.10
2018-05-09T23:43:05.869Z,52.20
2018-05-09T23:45:34.149Z,52.20
2018-05-09T23:48:02.630Z,52.20
2018-05-09T23:50:30.903Z,52.20
2018-05-09T23:52:59.185Z,52.20
2018-05-09T23:55:27.450Z,52.30
2018-05-09T23:57:55.719Z,52.20
